createdAt,value
2023-03-02T00:02:05.194Z,60.90
2023-03-02T00:04:37.788Z,60.90
2023-03-02T00:07:08.133Z,60.60
2023-03-02T00:09:35.607Z,60.60
2023-03-02T00:12:02.998Z,60.60
2023-03-02T00:14:30.272Z,60.70
2023-03-02T00:16:57.698Z,60.80
2023-03-02T00:19:24.873Z,60.90
2023-03-02T00:21:51.982Z,60.90
2023-03-02T00:24:19.226Z,60.70
2023-03-02T00:26:46.547Z,60.70
2023-03-02T00:29:14.063Z,60.80
2023-03-02T00:31:41.533Z,61.00
2023-03-02T00:34:08.636Z,61.10
2023-03-02T00:36:35.986Z,61.10
2023-03-02T00:39:04.501Z,61.10
2023-03-02T00:41:31.707Z,61.10
2023-03-02T00:43:58.879Z,61.10
2023-03-02T00:46:28.716Z,61.10
2023-03-02T00:48:55.957Z,61.20
2023-03-02T00:51:27.480Z,61.20
2023-03-02T00:53:54.628Z,61.30
2023-03-02T00:56:21.803Z,61.20
2023-03-02T00:58:51.849Z,61.20
2023-03-02T01:01:19.517Z,61.20
2023-03-02T01:03:50.612Z,61.20
2023-03-02T01:06:20.236Z,61.20
2023-03-02T01:08:47.575Z,61.20
2023-03-02T01:11:20.188Z,61.20
2023-03-02T01:13:47.594Z,61.30
2023-03-02T01:16:14.848Z,61.20
2023-03-02T01:18:42.196Z,61.30
2023-03-02T01:21:13.825Z,61.20
2023-03-02T01:23:41.456Z,61.10
2023-03-02T01:26:08.628Z,61.10
2023-03-02T01:28:35.810Z,61.10
2023-03-02T01:31:04.629Z,61.10
2023-03-02T01:33:32.362Z,61.20
2023-03-02T01:36:01.864Z,61.20
2023-03-02T01:38:29.264Z,61.20
2023-03-02T01:40:56.588Z,61.30
2023-03-02T01:43:23.790Z,61.40
2023-03-02T01:46:04.897Z,61.40
2023-03-02T01:48:52.935Z,61.50
2023-03-02T01:51:28.867Z,61.50
2023-03-02T01:54:06.280Z,61.60
2023-03-02T01:56:36.559Z,61.80
2023-03-02T01:59:11.207Z,61.80
2023-03-02T02:01:41.141Z,61.90
2023-03-02T02:04:11.846Z,61.80
2023-03-02T02:06:48.895Z,61.70
2023-03-02T02:09:18.354Z,61.80
2023-03-02T02:11:45.708Z,61.90
2023-03-02T02:14:13.248Z,61.90
2023-03-02T02:16:41.037Z,62.00
2023-03-02T02:20:00.510Z,62.20
2023-03-02T02:23:05.036Z,62.40
2023-03-02T02:25:53.171Z,62.30
2023-03-02T02:28:29.034Z,62.00
2023-03-02T02:31:36.086Z,62.00
2023-03-02T02:34:49.911Z,62.20
2023-03-02T02:37:24.276Z,62.30
2023-03-02T02:39:52.018Z,62.20
2023-03-02T02:42:30.585Z,62.10
2023-03-02T02:45:01.439Z,62.20
2023-03-02T02:47:28.879Z,62.00
2023-03-02T02:49:56.593Z,61.90
2023-03-02T02:52:26.625Z,62.10
2023-03-02T02:54:56.316Z,62.20
2023-03-02T02:57:26.660Z,62.30
2023-03-02T02:59:59.909Z,62.40
2023-03-02T03:02:30.911Z,62.50
2023-03-02T03:05:02.675Z,62.30
2023-03-02T03:07:32.169Z,62.30
2023-03-02T03:10:16.131Z,62.30
2023-03-02T03:12:44.436Z,62.50
2023-03-02T03:15:11.614Z,62.50
2023-03-02T03:17:38.796Z,62.50
2023-03-02T03:20:09.138Z,62.50
2023-03-02T03:22:39.871Z,62.60
2023-03-02T03:25:09.784Z,62.60
2023-03-02T03:27:38.258Z,62.70
2023-03-02T03:30:06.546Z,62.60
2023-03-02T03:32:35.666Z,62.70
2023-03-02T03:35:08.517Z,62.70
2023-03-02T03:37:36.016Z,62.60
2023-03-02T03:40:03.919Z,62.60
2023-03-02T03:42:32.648Z,62.40
2023-03-02T03:45:01.190Z,62.40
2023-03-02T03:47:28.596Z,62.50
2023-03-02T03:49:55.823Z,62.40
2023-03-02T03:52:30.712Z,62.40
2023-03-02T03:55:06.540Z,62.30
2023-03-02T03:57:33.907Z,62.20
2023-03-02T04:00:01.416Z,62.20
2023-03-02T04:02:29.513Z,62.10
2023-03-02T04:04:56.738Z,62.20
2023-03-02T04:07:23.996Z,62.20
2023-03-02T04:10:03.399Z,62.40
2023-03-02T04:12:34.504Z,62.50
2023-03-02T04:15:01.955Z,62.50
2023-03-02T04:17:29.256Z,62.50
2023-03-02T04:19:56.503Z,62.40
2023-03-02T04:22:24.132Z,62.60
2023-03-02T04:24:51.926Z,62.50
2023-03-02T04:27:19.715Z,62.40
2023-03-02T04:29:47.306Z,62.50
2023-03-02T04:32:17.828Z,62.50
2023-03-02T04:34:49.256Z,62.50
2023-03-02T04:37:16.522Z,62.50
2023-03-02T04:39:47.336Z,62.50
2023-03-02T04:42:14.614Z,62.50
2023-03-02T04:44:41.788Z,62.50
2023-03-02T04:47:10.439Z,62.60
2023-03-02T04:49:37.562Z,62.50
2023-03-02T04:52:05.046Z,62.40
2023-03-02T04:54:32.281Z,62.30
2023-03-02T04:56:59.472Z,62.30
2023-03-02T04:59:27.872Z,62.10
2023-03-02T05:01:57.396Z,62.20
2023-03-02T05:04:24.985Z,62.20
2023-03-02T05:06:52.170Z,62.30
2023-03-02T05:09:19.646Z,62.30
2023-03-02T05:11:46.882Z,62.30
2023-03-02T05:14:15.133Z,62.30
2023-03-02T05:16:42.529Z,62.30
2023-03-02T05:19:13.286Z,62.20
2023-03-02T05:21:40.735Z,62.20
2023-03-02T05:24:07.912Z,62.20
2023-03-02T05:26:35.295Z,62.20
2023-03-02T05:29:02.630Z,62.30
2023-03-02T05:31:35.075Z,62.30
2023-03-02T05:34:06.725Z,62.20
2023-03-02T05:36:34.421Z,62.20
2023-03-02T05:39:01.754Z,62.20
2023-03-02T05:41:29.099Z,62.30
2023-03-02T05:43:56.435Z,62.40
2023-03-02T05:46:23.759Z,62.70
2023-03-02T05:48:51.072Z,62.80
2023-03-02T05:51:18.827Z,62.90
2023-03-02T05:53:45.974Z,63.10
2023-03-02T05:56:13.161Z,63.10
2023-03-02T05:58:40.279Z,63.00
2023-03-02T06:01:14.785Z,62.90
2023-03-02T06:03:43.303Z,62.90
2023-03-02T06:06:14.031Z,62.90
2023-03-02T06:08:42.711Z,62.90
2023-03-02T06:11:10.520Z,62.50
2023-03-02T06:13:37.852Z,62.40
2023-03-02T06:16:05.507Z,62.10
2023-03-02T06:18:33.993Z,61.90
2023-03-02T06:21:01.648Z,61.80
2023-03-02T06:23:29.528Z,61.70
2023-03-02T06:25:58.121Z,61.40
2023-03-02T06:28:25.397Z,61.10
2023-03-02T06:30:53.004Z,60.90
2023-03-02T06:33:23.231Z,60.80
2023-03-02T06:35:50.667Z,60.80
2023-03-02T06:38:17.893Z,60.70
2023-03-02T06:40:45.155Z,60.40
2023-03-02T06:43:12.327Z,60.40
2023-03-02T06:45:39.651Z,60.10
2023-03-02T06:48:07.459Z,60.10
2023-03-02T06:50:34.729Z,60.00
2023-03-02T06:53:02.031Z,59.80
2023-03-02T06:55:29.182Z,59.60
2023-03-02T06:57:56.371Z,59.60
2023-03-02T07:00:28.237Z,59.50
2023-03-02T07:02:55.965Z,59.40
2023-03-02T07:05:24.448Z,59.30
2023-03-02T07:07:51.849Z,59.10
2023-03-02T07:10:19.123Z,59.10
2023-03-02T07:15:54.964Z,58.70
2023-03-02T07:18:22.179Z,58.60
2023-03-02T07:20:49.379Z,58.50
2023-03-02T07:23:16.596Z,58.30
2023-03-02T07:25:43.717Z,58.20
2023-03-02T07:28:13.453Z,58.10
2023-03-02T07:30:40.581Z,58.00
2023-03-02T07:33:07.771Z,57.90
2023-03-02T07:35:34.916Z,57.80
2023-03-02T07:38:02.088Z,57.70
2023-03-02T07:40:29.317Z,57.50
2023-03-02T07:42:56.449Z,57.30
2023-03-02T07:45:25.062Z,57.30
2023-03-02T07:47:52.339Z,57.10
2023-03-02T07:50:19.640Z,57.00
2023-03-02T07:52:46.918Z,56.80
2023-03-02T07:55:14.065Z,56.80
2023-03-02T07:57:44.297Z,56.70
2023-03-02T08:00:12.336Z,56.50
2023-03-02T08:02:41.368Z,56.30
2023-03-02T08:05:12.848Z,56.20
2023-03-02T08:07:43.969Z,55.80
2023-03-02T08:10:12.045Z,55.80
2023-03-02T08:12:39.252Z,55.50
2023-03-02T08:15:07.347Z,55.50
2023-03-02T08:17:34.572Z,55.50
2023-03-02T08:20:01.904Z,55.10
2023-03-02T08:22:29.520Z,55.10
2023-03-02T08:24:56.917Z,54.90
2023-03-02T08:27:31.259Z,55.00
2023-03-02T08:30:03.373Z,54.90
2023-03-02T08:32:32.274Z,54.60
2023-03-02T08:35:07.187Z,54.70
2023-03-02T08:37:34.615Z,54.70
2023-03-02T08:40:01.891Z,54.40
2023-03-02T08:42:32.766Z,54.20
2023-03-02T08:45:02.172Z,53.60
2023-03-02T08:47:30.567Z,53.50
2023-03-02T08:49:59.710Z,53.30
2023-03-02T08:52:30.196Z,53.00
2023-03-02T08:54:57.518Z,53.00
2023-03-02T08:57:26.634Z,52.70
2023-03-02T08:59:54.456Z,52.10
2023-03-02T09:02:23.017Z,52.00
2023-03-02T09:04:50.421Z,51.30
2023-03-02T09:07:17.666Z,51.50
2023-03-02T09:09:47.361Z,51.70
2023-03-02T09:12:14.517Z,51.60
2023-03-02T09:14:44.964Z,51.70
2023-03-02T09:17:16.874Z,51.70
2023-03-02T09:19:44.735Z,51.90
2023-03-02T09:22:12.865Z,51.80
2023-03-02T09:24:43.017Z,51.70
2023-03-02T09:27:10.319Z,51.40
2023-03-02T09:29:37.996Z,51.40
2023-03-02T09:32:11.520Z,51.40
2023-03-02T09:35:00.162Z,51.50
2023-03-02T09:37:30.468Z,51.60
2023-03-02T09:39:57.777Z,51.40
2023-03-02T09:43:04.036Z,51.70
2023-03-02T09:46:08.982Z,51.60
2023-03-02T09:49:16.526Z,51.50
2023-03-02T09:51:54.408Z,51.20
2023-03-02T09:54:43.825Z,51.00
2023-03-02T09:57:28.597Z,51.00
2023-03-02T10:00:22.961Z,50.90
2023-03-02T10:02:54.361Z,50.60
2023-03-02T10:06:01.914Z,50.60
2023-03-02T10:08:31.085Z,49.80
2023-03-02T10:11:23.330Z,49.90
2023-03-02T10:14:21.309Z,49.40
2023-03-02T10:17:52.838Z,50.10
2023-03-02T10:20:34.103Z,50.30
2023-03-02T10:23:32.646Z,50.40
2023-03-02T10:26:27.550Z,50.20
2023-03-02T10:29:27.119Z,50.40
2023-03-02T10:32:04.772Z,51.10
2023-03-02T10:34:32.053Z,50.80
2023-03-02T10:36:59.408Z,50.40
2023-03-02T10:39:28.107Z,50.10
2023-03-02T10:42:04.262Z,50.30
2023-03-02T10:44:41.621Z,49.90
2023-03-02T10:47:28.725Z,49.80
2023-03-02T10:49:57.278Z,49.70
2023-03-02T10:52:44.150Z,49.70
2023-03-02T10:55:14.872Z,49.80
2023-03-02T10:57:45.960Z,49.40
2023-03-02T11:00:26.247Z,49.40
2023-03-02T11:03:21.034Z,49.00
2023-03-02T11:05:48.479Z,48.70
2023-03-02T11:08:25.251Z,48.70
2023-03-02T11:11:00.545Z,48.60
2023-03-02T11:13:37.251Z,48.60
2023-03-02T11:16:28.500Z,48.40
2023-03-02T11:19:03.013Z,48.10
2023-03-02T11:21:43.272Z,47.70
2023-03-02T11:24:37.328Z,47.60
2023-03-02T11:27:12.057Z,48.10
2023-03-02T11:29:42.800Z,47.40
2023-03-02T11:32:30.959Z,47.50
2023-03-02T11:35:11.099Z,46.90
2023-03-02T11:37:55.298Z,46.90
2023-03-02T11:40:59.242Z,46.70
2023-03-02T11:43:26.841Z,46.90
2023-03-02T11:46:13.853Z,46.80
2023-03-02T11:48:51.909Z,46.40
2023-03-02T11:51:34.293Z,46.70
2023-03-02T11:54:13.752Z,46.40
2023-03-02T11:56:41.270Z,46.70
2023-03-02T11:59:18.258Z,46.50
2023-03-02T12:01:48.041Z,46.10
2023-03-02T12:04:38.610Z,46.30
2023-03-02T12:07:25.456Z,46.10
2023-03-02T12:10:03.981Z,45.20
2023-03-02T12:12:37.150Z,45.10
2023-03-02T12:15:23.690Z,44.50
2023-03-02T12:17:54.537Z,44.70
2023-03-02T12:20:24.613Z,44.80
2023-03-02T12:22:51.925Z,44.80
2023-03-02T12:25:19.015Z,45.00
2023-03-02T12:27:53.690Z,44.90
2023-03-02T12:30:28.184Z,44.80
2023-03-02T12:33:10.643Z,44.70
2023-03-02T12:35:38.094Z,44.60
2023-03-02T12:38:31.694Z,44.70
2023-03-02T12:41:32.722Z,44.60
2023-03-02T12:44:38.044Z,44.70
2023-03-02T12:47:08.161Z,44.30
2023-03-02T12:49:55.025Z,45.60
2023-03-02T12:52:31.743Z,44.90
2023-03-02T12:55:19.692Z,44.30
2023-03-02T12:58:01.178Z,43.90
2023-03-02T13:00:33.692Z,44.20
2023-03-02T13:03:07.096Z,44.30
2023-03-02T13:05:35.893Z,44.00
2023-03-02T13:08:09.153Z,43.90
2023-03-02T13:10:51.832Z,43.80
2023-03-02T13:13:20.743Z,43.60
2023-03-02T13:15:59.300Z,43.70
2023-03-02T13:18:32.256Z,43.00
2023-03-02T13:21:00.281Z,43.00
2023-03-02T13:23:29.076Z,43.00
2023-03-02T13:26:01.712Z,42.90
2023-03-02T13:28:29.734Z,43.00
2023-03-02T13:31:05.627Z,43.00
2023-03-02T13:33:34.704Z,43.20
2023-03-02T13:36:01.926Z,42.90
2023-03-02T13:38:36.942Z,42.80
2023-03-02T13:41:04.139Z,42.90
2023-03-02T13:43:40.847Z,43.20
2023-03-02T13:46:14.243Z,43.30
2023-03-02T13:48:41.415Z,43.30
2023-03-02T13:51:18.748Z,43.30
2023-03-02T13:53:59.947Z,42.90
2023-03-02T13:56:43.897Z,42.80
2023-03-02T13:59:16.379Z,42.90
2023-03-02T14:01:46.245Z,42.90
2023-03-02T14:04:14.714Z,43.00
2023-03-02T14:06:41.858Z,43.00
2023-03-02T14:09:09.012Z,42.90
2023-03-02T14:11:52.224Z,42.90
2023-03-02T14:14:21.531Z,42.80
2023-03-02T14:16:48.901Z,43.00
2023-03-02T14:19:18.902Z,42.90
2023-03-02T14:21:46.595Z,42.90
2023-03-02T14:24:13.812Z,42.80
2023-03-02T14:26:47.203Z,43.00
2023-03-02T14:29:25.282Z,42.70
2023-03-02T14:31:54.762Z,42.80
2023-03-02T14:34:25.035Z,43.00
2023-03-02T14:36:59.969Z,43.00
2023-03-02T14:39:37.840Z,42.80
2023-03-02T14:42:06.205Z,42.90
2023-03-02T14:44:35.484Z,43.00
2023-03-02T14:47:02.600Z,42.90
2023-03-02T14:49:29.806Z,42.90
2023-03-02T14:52:05.381Z,42.90
2023-03-02T14:54:41.148Z,42.70
2023-03-02T14:57:29.009Z,42.70
2023-03-02T14:59:56.737Z,42.80
2023-03-02T15:02:31.108Z,43.00
2023-03-02T15:04:58.426Z,43.00
2023-03-02T15:07:30.243Z,43.00
2023-03-02T15:09:57.857Z,42.90
2023-03-02T15:12:25.122Z,42.90
2023-03-02T15:14:52.232Z,42.90
2023-03-02T15:17:19.565Z,43.00
2023-03-02T15:19:47.238Z,43.10
2023-03-02T15:22:14.529Z,43.10
2023-03-02T15:24:41.797Z,43.20
2023-03-02T15:27:08.981Z,43.30
2023-03-02T15:29:36.160Z,43.30
2023-03-02T15:32:09.421Z,43.30
2023-03-02T15:34:48.526Z,43.10
2023-03-02T15:37:15.928Z,43.20
2023-03-02T15:39:44.466Z,43.30
2023-03-02T15:42:24.146Z,43.40
2023-03-02T15:44:51.301Z,43.40
2023-03-02T15:47:19.295Z,43.50
2023-03-02T15:49:46.455Z,43.50
2023-03-02T15:52:19.963Z,43.60
2023-03-02T15:54:48.284Z,43.50
2023-03-02T15:57:15.460Z,43.50
2023-03-02T15:59:43.619Z,43.70
2023-03-02T16:02:10.982Z,43.70
2023-03-02T16:04:38.123Z,43.70
2023-03-02T16:07:06.379Z,43.80
2023-03-02T16:09:33.536Z,43.90
2023-03-02T16:12:01.103Z,44.00
2023-03-02T16:14:28.350Z,43.90
2023-03-02T16:16:55.628Z,43.90
2023-03-02T16:19:22.877Z,44.00
2023-03-02T16:21:50.027Z,44.00
2023-03-02T16:24:17.329Z,44.10
2023-03-02T16:26:44.783Z,44.20
2023-03-02T16:29:13.086Z,44.20
2023-03-02T16:31:40.600Z,44.30
2023-03-02T16:34:08.877Z,44.40
2023-03-02T16:36:37.265Z,44.40
2023-03-02T16:39:05.158Z,44.40
2023-03-02T16:41:32.305Z,44.40
2023-03-02T16:43:59.706Z,44.60
2023-03-02T16:46:33.098Z,44.60
2023-03-02T16:49:00.311Z,44.60
2023-03-02T16:51:27.503Z,44.70
2023-03-02T16:53:54.815Z,44.80
2023-03-02T16:56:21.964Z,44.90
2023-03-02T16:58:49.213Z,44.90
2023-03-02T17:01:19.798Z,45.10
2023-03-02T17:03:47.310Z,45.40
2023-03-02T17:06:16.030Z,45.50
2023-03-02T17:08:43.170Z,45.90
2023-03-02T17:11:10.351Z,46.10
2023-03-02T17:13:37.940Z,46.50
2023-03-02T17:16:05.635Z,46.90
2023-03-02T17:18:33.103Z,46.90
2023-03-02T17:21:00.836Z,47.40
2023-03-02T17:23:28.066Z,47.30
2023-03-02T17:25:56.590Z,47.60
2023-03-02T17:28:24.203Z,47.70
2023-03-02T17:30:51.667Z,47.90
2023-03-02T17:33:18.986Z,48.30
2023-03-02T17:35:46.382Z,48.60
2023-03-02T17:38:14.590Z,48.50
2023-03-02T17:40:42.834Z,48.70
2023-03-02T17:43:10.170Z,48.80
2023-03-02T17:45:38.099Z,48.90
2023-03-02T17:48:06.123Z,49.00
2023-03-02T17:50:33.313Z,49.30
2023-03-02T17:53:00.523Z,49.40
2023-03-02T17:55:27.718Z,49.60
2023-03-02T17:57:55.033Z,49.90
2023-03-02T18:00:23.616Z,49.90
2023-03-02T18:02:51.135Z,50.00
2023-03-02T18:05:22.218Z,50.00
2023-03-02T18:07:50.220Z,50.10
2023-03-02T18:10:17.406Z,50.20
2023-03-02T18:12:44.572Z,50.40
2023-03-02T18:15:14.394Z,50.50
2023-03-02T18:18:14.793Z,50.60
2023-03-02T18:20:47.471Z,50.70
2023-03-02T18:23:14.833Z,51.00
2023-03-02T18:25:45.263Z,51.20
2023-03-02T18:28:12.488Z,51.30
2023-03-02T18:30:39.612Z,51.60
2023-03-02T18:33:06.789Z,51.80
2023-03-02T18:35:36.527Z,52.00
2023-03-02T18:38:03.784Z,52.20
2023-03-02T18:40:30.986Z,52.20
2023-03-02T18:42:58.133Z,52.30
2023-03-02T18:45:28.726Z,52.40
2023-03-02T18:47:56.710Z,52.60
2023-03-02T18:50:23.986Z,52.70
2023-03-02T18:52:53.708Z,53.00
2023-03-02T18:55:23.489Z,53.20
2023-03-02T18:57:53.890Z,53.30
2023-03-02T19:00:27.352Z,53.20
2023-03-02T19:02:56.017Z,53.50
2023-03-02T19:05:25.229Z,53.60
2023-03-02T19:07:52.899Z,53.60
2023-03-02T19:10:21.479Z,53.70
2023-03-02T19:12:48.779Z,53.90
2023-03-02T19:15:16.072Z,53.90
2023-03-02T19:17:43.317Z,54.00
2023-03-02T19:20:15.587Z,54.10
2023-03-02T19:22:42.795Z,54.20
2023-03-02T19:25:11.325Z,54.40
2023-03-02T19:27:44.798Z,54.50
2023-03-02T19:30:16.207Z,54.50
2023-03-02T19:32:43.409Z,54.80
2023-03-02T19:35:14.792Z,54.80
2023-03-02T19:37:41.978Z,55.00
2023-03-02T19:40:10.233Z,55.00
2023-03-02T19:42:39.424Z,55.20
2023-03-02T19:45:09.681Z,55.50
2023-03-02T19:47:36.884Z,55.60
2023-03-02T19:50:04.651Z,55.50
2023-03-02T19:52:31.793Z,55.50
2023-03-02T19:54:58.896Z,55.60
2023-03-02T19:57:26.100Z,55.70
2023-03-02T19:59:53.391Z,55.70
2023-03-02T20:02:20.654Z,55.80
2023-03-02T20:04:49.827Z,55.90
2023-03-02T20:07:19.266Z,56.00
2023-03-02T20:09:47.038Z,56.00
2023-03-02T20:12:14.381Z,56.10
2023-03-02T20:14:44.108Z,56.10
2023-03-02T20:17:11.348Z,56.20
2023-03-02T20:19:38.472Z,56.30
2023-03-02T20:22:06.972Z,56.40
2023-03-02T20:24:34.449Z,56.50
2023-03-02T20:27:01.644Z,56.70
2023-03-02T20:29:29.930Z,56.70
2023-03-02T20:31:58.049Z,56.70
2023-03-02T20:34:25.286Z,56.80
2023-03-02T20:36:52.439Z,57.00
2023-03-02T20:39:29.504Z,57.00
2023-03-02T20:41:56.827Z,57.30
2023-03-02T20:44:26.630Z,57.20
2023-03-02T20:46:56.164Z,57.30
2023-03-02T20:49:24.473Z,57.40
2023-03-02T20:51:54.639Z,57.40
2023-03-02T20:54:23.685Z,57.40
2023-03-02T20:56:51.066Z,57.50
2023-03-02T20:59:22.181Z,57.50
2023-03-02T21:01:52.611Z,57.70
2023-03-02T21:04:22.424Z,57.50
2023-03-02T21:06:50.500Z,57.60
2023-03-02T21:09:21.577Z,57.80
2023-03-02T21:11:59.402Z,57.90
2023-03-02T21:14:30.729Z,58.20
2023-03-02T21:16:58.578Z,58.10
2023-03-02T21:19:25.863Z,58.00
2023-03-02T21:21:55.270Z,58.10
2023-03-02T21:24:22.761Z,58.20
2023-03-02T21:26:56.317Z,58.40
2023-03-02T21:29:31.019Z,58.50
2023-03-02T21:32:06.210Z,58.90
2023-03-02T21:34:37.204Z,58.70
2023-03-02T21:37:15.096Z,58.70
2023-03-02T21:39:42.409Z,58.70
2023-03-02T21:42:14.079Z,58.70
2023-03-02T21:44:43.996Z,58.90
2023-03-02T21:47:11.492Z,58.80
2023-03-02T21:49:41.740Z,58.80
2023-03-02T21:52:14.397Z,58.90
2023-03-02T21:54:45.233Z,59.20
2023-03-02T21:57:12.699Z,59.10
2023-03-02T21:59:51.156Z,59.10
2023-03-02T22:02:18.430Z,59.10
2023-03-02T22:04:45.753Z,59.20
2023-03-02T22:07:15.837Z,59.20
2023-03-02T22:09:43.203Z,59.50
2023-03-02T22:12:14.555Z,59.40
2023-03-02T22:14:45.349Z,59.60
2023-03-02T22:17:19.245Z,59.40
2023-03-02T22:19:46.643Z,59.80
2023-03-02T22:22:31.761Z,59.50
2023-03-02T22:24:59.087Z,60.00
2023-03-02T22:27:30.919Z,59.70
2023-03-02T22:29:59.805Z,59.90
2023-03-02T22:32:31.476Z,60.00
2023-03-02T22:35:00.680Z,60.10
2023-03-02T22:37:30.489Z,59.90
2023-03-02T22:40:00.959Z,59.80
2023-03-02T22:42:30.018Z,59.80
2023-03-02T22:45:10.017Z,59.90
2023-03-02T22:47:37.189Z,60.00
2023-03-02T22:50:29.809Z,60.00
2023-03-02T22:52:57.900Z,60.20
2023-03-02T22:55:42.437Z,59.90
2023-03-02T22:58:30.682Z,60.10
2023-03-02T23:00:59.297Z,60.30
2023-03-02T23:03:40.862Z,60.00
2023-03-02T23:06:31.075Z,60.30
2023-03-02T23:09:01.180Z,60.20
2023-03-02T23:11:28.759Z,60.00
2023-03-02T23:13:56.134Z,60.10
2023-03-02T23:16:28.518Z,60.10
2023-03-02T23:18:59.212Z,60.40
2023-03-02T23:21:40.951Z,60.30
2023-03-02T23:24:08.334Z,60.40
2023-03-02T23:26:35.661Z,60.40
2023-03-02T23:29:02.859Z,60.40
2023-03-02T23:31:30.054Z,60.40
2023-03-02T23:33:57.178Z,60.40
2023-03-02T23:36:24.340Z,60.30
2023-03-02T23:38:51.509Z,60.40
2023-03-02T23:41:18.822Z,60.50
2023-03-02T23:43:46.125Z,60.50
2023-03-02T23:46:14.256Z,60.60
2023-03-02T23:48:42.344Z,60.50
2023-03-02T23:51:10.018Z,60.60
2023-03-02T23:53:37.190Z,60.70
2023-03-02T23:57:48.733Z,60.70
